sensor_id;sensor_type;location;lat;lon;timestamp;temperature;humidity
56044;DHT22;41912;51.022;3.664;2023-03-01T00:01:05;2.20;99.90
56044;DHT22;41912;51.022;3.664;2023-03-01T00:03:33;2.20;99.90
56044;DHT22;41912;51.022;3.664;2023-03-01T00:06:00;2.20;99.90
56044;DHT22;41912;51.022;3.664;2023-03-01T00:08:26;2.10;99.90
56044;DHT22;41912;51.022;3.664;2023-03-01T00:11:45;2.10;99.90
56044;DHT22;41912;51.022;3.664;2023-03-01T00:14:04;2.10;99.90
56044;DHT22;41912;51.022;3.664;2023-03-01T00:16:38;2.00;99.90
56044;DHT22;41912;51.022;3.664;2023-03-01T00:19:06;2.00;99.90
56044;DHT22;41912;51.022;3.664;2023-03-01T00:21:32;2.00;99.90
56044;DHT22;41912;51.022;3.664;2023-03-01T00:23:59;1.90;99.90
56044;DHT22;41912;51.022;3.664;2023-03-01T00:26:25;1.90;99.90
56044;DHT22;41912;51.022;3.664;2023-03-01T00:28:51;1.90;99.90
56044;DHT22;41912;51.022;3.664;2023-03-01T00:31:19;1.90;99.90
56044;DHT22;41912;51.022;3.664;2023-03-01T00:33:45;1.90;99.90
56044;DHT22;41912;51.022;3.664;2023-03-01T00:36:13;1.90;99.90
56044;DHT22;41912;51.022;3.664;2023-03-01T00:38:44;1.90;99.90
56044;DHT22;41912;51.022;3.664;2023-03-01T00:41:12;1.80;99.90
56044;DHT22;41912;51.022;3.664;2023-03-01T00:43:39;1.80;99.90
56044;DHT22;41912;51.022;3.664;2023-03-01T00:46:10;1.80;99.90
56044;DHT22;41912;51.022;3.664;2023-03-01T00:48:36;1.80;99.90
56044;DHT22;41912;51.022;3.664;2023-03-01T00:51:10;1.70;99.90
56044;DHT22;41912;51.022;3.664;2023-03-01T00:53:37;1.70;99.90
56044;DHT22;41912;51.022;3.664;2023-03-01T00:56:04;1.70;99.90
56044;DHT22;41912;51.022;3.664;2023-03-01T00:58:30;1.70;99.90
56044;DHT22;41912;51.022;3.664;2023-03-01T01:00:56;1.60;99.90
56044;DHT22;41912;51.022;3.664;2023-03-01T01:03:22;1.70;99.90
56044;DHT22;41912;51.022;3.664;2023-03-01T01:05:48;1.60;99.90
56044;DHT22;41912;51.022;3.664;2023-03-01T01:08:14;1.60;99.90
56044;DHT22;41912;51.022;3.664;2023-03-01T01:10:39;1.60;99.90
56044;DHT22;41912;51.022;3.664;2023-03-01T01:13:05;1.60;99.90
56044;DHT22;41912;51.022;3.664;2023-03-01T01:15:34;1.50;99.90
56044;DHT22;41912;51.022;3.664;2023-03-01T01:18:00;1.50;99.90
56044;DHT22;41912;51.022;3.664;2023-03-01T01:20:26;1.40;99.90
56044;DHT22;41912;51.022;3.664;2023-03-01T01:22:52;1.40;99.90
56044;DHT22;41912;51.022;3.664;2023-03-01T01:25:18;1.50;99.90
56044;DHT22;41912;51.022;3.664;2023-03-01T01:27:43;1.40;99.90
56044;DHT22;41912;51.022;3.664;2023-03-01T01:30:09;1.40;99.90
56044;DHT22;41912;51.022;3.664;2023-03-01T01:32:35;1.40;99.90
56044;DHT22;41912;51.022;3.664;2023-03-01T01:35:01;1.40;99.90
56044;DHT22;41912;51.022;3.664;2023-03-01T01:37:26;1.40;99.90
56044;DHT22;41912;51.022;3.664;2023-03-01T01:39:59;1.40;99.90
56044;DHT22;41912;51.022;3.664;2023-03-01T01:42:27;1.30;99.90
56044;DHT22;41912;51.022;3.664;2023-03-01T01:45:29;1.30;99.90
56044;DHT22;41912;51.022;3.664;2023-03-01T01:48:00;1.30;99.90
56044;DHT22;41912;51.022;3.664;2023-03-01T01:50:28;1.30;99.90
56044;DHT22;41912;51.022;3.664;2023-03-01T01:53:13;1.30;99.90
56044;DHT22;41912;51.022;3.664;2023-03-01T01:55:44;1.30;99.90
56044;DHT22;41912;51.022;3.664;2023-03-01T01:58:13;1.30;99.90
56044;DHT22;41912;51.022;3.664;2023-03-01T02:00:40;1.30;99.90
56044;DHT22;41912;51.022;3.664;2023-03-01T02:03:14;1.30;99.90
56044;DHT22;41912;51.022;3.664;2023-03-01T02:06:03;1.30;99.90
56044;DHT22;41912;51.022;3.664;2023-03-01T02:08:33;1.30;99.90
56044;DHT22;41912;51.022;3.664;2023-03-01T02:11:00;1.30;99.90
56044;DHT22;41912;51.022;3.664;2023-03-01T02:13:27;1.30;99.90
56044;DHT22;41912;51.022;3.664;2023-03-01T02:15:53;1.20;99.90
56044;DHT22;41912;51.022;3.664;2023-03-01T02:18:20;1.20;99.90
56044;DHT22;41912;51.022;3.664;2023-03-01T02:23:30;1.20;99.90
56044;DHT22;41912;51.022;3.664;2023-03-01T02:26:21;1.20;99.90
56044;DHT22;41912;51.022;3.664;2023-03-01T02:28:50;1.20;99.90
56044;DHT22;41912;51.022;3.664;2023-03-01T02:31:19;1.20;99.90
56044;DHT22;41912;51.022;3.664;2023-03-01T02:34:05;1.10;99.90
56044;DHT22;41912;51.022;3.664;2023-03-01T02:36:57;1.10;99.90
56044;DHT22;41912;51.022;3.664;2023-03-01T02:39:26;1.10;99.90
56044;DHT22;41912;51.022;3.664;2023-03-01T02:41:54;1.10;99.90
56044;DHT22;41912;51.022;3.664;2023-03-01T02:44:21;1.00;99.90
56044;DHT22;41912;51.022;3.664;2023-03-01T02:46:49;1.00;99.90
56044;DHT22;41912;51.022;3.664;2023-03-01T02:49:19;1.00;99.90
56044;DHT22;41912;51.022;3.664;2023-03-01T02:52:00;1.00;99.90
56044;DHT22;41912;51.022;3.664;2023-03-01T02:54:46;0.90;99.90
56044;DHT22;41912;51.022;3.664;2023-03-01T02:57:14;1.00;99.90
56044;DHT22;41912;51.022;3.664;2023-03-01T02:59:40;1.00;99.90
56044;DHT22;41912;51.022;3.664;2023-03-01T03:02:30;0.90;99.90
56044;DHT22;41912;51.022;3.664;2023-03-01T03:05:13;0.90;99.90
56044;DHT22;41912;51.022;3.664;2023-03-01T03:07:42;0.80;99.90
56044;DHT22;41912;51.022;3.664;2023-03-01T03:10:10;0.80;99.90
56044;DHT22;41912;51.022;3.664;2023-03-01T03:12:37;0.80;99.90
56044;DHT22;41912;51.022;3.664;2023-03-01T03:15:05;0.80;99.90
56044;DHT22;41912;51.022;3.664;2023-03-01T03:17:37;0.80;99.90
56044;DHT22;41912;51.022;3.664;2023-03-01T03:20:05;0.80;99.90
56044;DHT22;41912;51.022;3.664;2023-03-01T03:22:31;0.70;99.90
56044;DHT22;41912;51.022;3.664;2023-03-01T03:24:59;0.80;99.90
56044;DHT22;41912;51.022;3.664;2023-03-01T03:27:25;0.80;99.90
56044;DHT22;41912;51.022;3.664;2023-03-01T03:29:50;0.70;99.90
56044;DHT22;41912;51.022;3.664;2023-03-01T03:32:16;0.80;99.90
56044;DHT22;41912;51.022;3.664;2023-03-01T03:34:41;0.80;99.90
56044;DHT22;41912;51.022;3.664;2023-03-01T03:37:07;0.70;99.90
56044;DHT22;41912;51.022;3.664;2023-03-01T03:39:53;0.70;99.90
56044;DHT22;41912;51.022;3.664;2023-03-01T03:42:20;0.70;99.90
56044;DHT22;41912;51.022;3.664;2023-03-01T03:44:47;0.70;99.90
56044;DHT22;41912;51.022;3.664;2023-03-01T03:47:12;0.70;99.90
56044;DHT22;41912;51.022;3.664;2023-03-01T03:49:38;0.70;99.90
56044;DHT22;41912;51.022;3.664;2023-03-01T03:52:04;0.70;99.90
56044;DHT22;41912;51.022;3.664;2023-03-01T03:54:29;0.70;99.90
56044;DHT22;41912;51.022;3.664;2023-03-01T03:56:55;0.70;99.90
56044;DHT22;41912;51.022;3.664;2023-03-01T03:59:20;0.70;99.90
56044;DHT22;41912;51.022;3.664;2023-03-01T04:01:46;0.60;99.90
56044;DHT22;41912;51.022;3.664;2023-03-01T04:04:12;0.60;99.90
56044;DHT22;41912;51.022;3.664;2023-03-01T04:06:38;0.60;99.90
56044;DHT22;41912;51.022;3.664;2023-03-01T04:09:04;0.60;99.90
56044;DHT22;41912;51.022;3.664;2023-03-01T04:11:29;0.60;99.90
56044;DHT22;41912;51.022;3.664;2023-03-01T04:13:57;0.60;99.90
56044;DHT22;41912;51.022;3.664;2023-03-01T04:19:45;0.60;99.90
56044;DHT22;41912;51.022;3.664;2023-03-01T04:22:14;0.60;99.90
56044;DHT22;41912;51.022;3.664;2023-03-01T04:24:44;0.60;99.90
56044;DHT22;41912;51.022;3.664;2023-03-01T04:27:11;0.60;99.90
56044;DHT22;41912;51.022;3.664;2023-03-01T04:29:36;0.50;99.90
56044;DHT22;41912;51.022;3.664;2023-03-01T04:32:02;0.60;99.90
56044;DHT22;41912;51.022;3.664;2023-03-01T04:34:29;0.60;99.90
56044;DHT22;41912;51.022;3.664;2023-03-01T04:36:55;0.50;99.90
56044;DHT22;41912;51.022;3.664;2023-03-01T04:39:21;0.50;99.90
56044;DHT22;41912;51.022;3.664;2023-03-01T04:41:47;0.40;99.90
56044;DHT22;41912;51.022;3.664;2023-03-01T04:44:13;0.40;99.90
56044;DHT22;41912;51.022;3.664;2023-03-01T04:46:38;0.40;99.90
56044;DHT22;41912;51.022;3.664;2023-03-01T04:49:04;0.40;99.90
56044;DHT22;41912;51.022;3.664;2023-03-01T04:51:31;0.40;99.90
56044;DHT22;41912;51.022;3.664;2023-03-01T04:53:58;0.40;99.90
56044;DHT22;41912;51.022;3.664;2023-03-01T04:56:23;0.40;99.90
56044;DHT22;41912;51.022;3.664;2023-03-01T04:58:49;0.40;99.90
56044;DHT22;41912;51.022;3.664;2023-03-01T05:01:20;0.30;99.90
56044;DHT22;41912;51.022;3.664;2023-03-01T05:03:48;0.30;99.90
56044;DHT22;41912;51.022;3.664;2023-03-01T05:06:14;0.30;99.90
56044;DHT22;41912;51.022;3.664;2023-03-01T05:08:41;0.30;99.90
56044;DHT22;41912;51.022;3.664;2023-03-01T05:11:07;0.40;99.90
56044;DHT22;41912;51.022;3.664;2023-03-01T05:13:35;0.30;99.90
56044;DHT22;41912;51.022;3.664;2023-03-01T05:16:02;0.30;99.90
56044;DHT22;41912;51.022;3.664;2023-03-01T05:18:30;0.30;99.90
56044;DHT22;41912;51.022;3.664;2023-03-01T05:21:05;0.30;99.90
56044;DHT22;41912;51.022;3.664;2023-03-01T05:23:32;0.30;99.90
56044;DHT22;41912;51.022;3.664;2023-03-01T05:25:59;0.30;99.90
56044;DHT22;41912;51.022;3.664;2023-03-01T05:28:26;0.30;99.90
56044;DHT22;41912;51.022;3.664;2023-03-01T05:30:54;0.20;99.90
56044;DHT22;41912;51.022;3.664;2023-03-01T05:33:20;0.20;99.90
56044;DHT22;41912;51.022;3.664;2023-03-01T05:35:48;0.20;99.90
56044;DHT22;41912;51.022;3.664;2023-03-01T05:38:14;0.20;99.90
56044;DHT22;41912;51.022;3.664;2023-03-01T05:40:41;0.20;99.90
56044;DHT22;41912;51.022;3.664;2023-03-01T05:43:07;0.20;99.90
56044;DHT22;41912;51.022;3.664;2023-03-01T05:45:36;0.20;99.90
56044;DHT22;41912;51.022;3.664;2023-03-01T05:48:02;0.20;99.90
56044;DHT22;41912;51.022;3.664;2023-03-01T05:50:29;0.30;99.90
56044;DHT22;41912;51.022;3.664;2023-03-01T05:53:04;0.30;99.90
56044;DHT22;41912;51.022;3.664;2023-03-01T05:55:34;0.30;99.90
56044;DHT22;41912;51.022;3.664;2023-03-01T05:58:03;0.30;99.90
56044;DHT22;41912;51.022;3.664;2023-03-01T06:00:29;0.30;99.90
56044;DHT22;41912;51.022;3.664;2023-03-01T06:02:56;0.30;99.90
56044;DHT22;41912;51.022;3.664;2023-03-01T06:05:22;0.30;99.90
56044;DHT22;41912;51.022;3.664;2023-03-01T06:07:48;0.30;99.90
56044;DHT22;41912;51.022;3.664;2023-03-01T06:10:15;0.30;99.90
56044;DHT22;41912;51.022;3.664;2023-03-01T06:12:42;0.30;99.90
56044;DHT22;41912;51.022;3.664;2023-03-01T06:15:09;0.30;99.90
56044;DHT22;41912;51.022;3.664;2023-03-01T06:17:36;0.40;99.90
56044;DHT22;41912;51.022;3.664;2023-03-01T06:20:10;0.40;99.90
56044;DHT22;41912;51.022;3.664;2023-03-01T06:22:36;0.40;99.90
56044;DHT22;41912;51.022;3.664;2023-03-01T06:25:02;0.40;99.90
56044;DHT22;41912;51.022;3.664;2023-03-01T06:27:28;0.40;99.90
56044;DHT22;41912;51.022;3.664;2023-03-01T06:29:54;0.40;99.90
56044;DHT22;41912;51.022;3.664;2023-03-01T06:32:19;0.40;99.90
56044;DHT22;41912;51.022;3.664;2023-03-01T06:34:45;0.40;99.90
56044;DHT22;41912;51.022;3.664;2023-03-01T06:37:11;0.50;99.90
56044;DHT22;41912;51.022;3.664;2023-03-01T06:39:36;0.50;99.90
56044;DHT22;41912;51.022;3.664;2023-03-01T06:42:03;0.50;99.90
56044;DHT22;41912;51.022;3.664;2023-03-01T06:44:29;0.50;99.90
56044;DHT22;41912;51.022;3.664;2023-03-01T06:46:54;0.50;99.90
56044;DHT22;41912;51.022;3.664;2023-03-01T06:49:20;0.50;99.90
56044;DHT22;41912;51.022;3.664;2023-03-01T06:51:46;0.60;99.90
56044;DHT22;41912;51.022;3.664;2023-03-01T06:54:12;0.60;99.90
56044;DHT22;41912;51.022;3.664;2023-03-01T06:56:38;0.60;99.90
56044;DHT22;41912;51.022;3.664;2023-03-01T06:59:04;0.60;99.90
56044;DHT22;41912;51.022;3.664;2023-03-01T07:01:31;0.50;99.90
56044;DHT22;41912;51.022;3.664;2023-03-01T07:03:57;0.50;99.90
56044;DHT22;41912;51.022;3.664;2023-03-01T07:06:23;0.60;99.90
56044;DHT22;41912;51.022;3.664;2023-03-01T07:08:49;0.60;99.90
56044;DHT22;41912;51.022;3.664;2023-03-01T07:11:15;0.70;99.90
56044;DHT22;41912;51.022;3.664;2023-03-01T07:13:41;0.70;99.90
56044;DHT22;41912;51.022;3.664;2023-03-01T07:16:07;0.70;99.90
56044;DHT22;41912;51.022;3.664;2023-03-01T07:18:33;0.80;99.90
56044;DHT22;41912;51.022;3.664;2023-03-01T07:21:06;0.80;99.90
56044;DHT22;41912;51.022;3.664;2023-03-01T07:23:32;0.90;99.90
56044;DHT22;41912;51.022;3.664;2023-03-01T07:25:58;0.90;99.90
56044;DHT22;41912;51.022;3.664;2023-03-01T07:28:24;0.90;99.90
56044;DHT22;41912;51.022;3.664;2023-03-01T07:30:50;0.90;99.90
56044;DHT22;41912;51.022;3.664;2023-03-01T07:33:17;1.00;99.90
56044;DHT22;41912;51.022;3.664;2023-03-01T07:35:43;1.00;99.90
56044;DHT22;41912;51.022;3.664;2023-03-01T07:38:08;1.10;99.90
56044;DHT22;41912;51.022;3.664;2023-03-01T07:40:34;1.10;99.90
56044;DHT22;41912;51.022;3.664;2023-03-01T07:43:00;1.20;99.90
56044;DHT22;41912;51.022;3.664;2023-03-01T07:45:27;1.30;99.90
56044;DHT22;41912;51.022;3.664;2023-03-01T07:47:54;1.40;99.90
56044;DHT22;41912;51.022;3.664;2023-03-01T07:50:20;1.40;99.90
56044;DHT22;41912;51.022;3.664;2023-03-01T07:52:47;1.50;99.90
56044;DHT22;41912;51.022;3.664;2023-03-01T07:55:13;1.60;99.90
56044;DHT22;41912;51.022;3.664;2023-03-01T07:57:39;1.60;99.90
56044;DHT22;41912;51.022;3.664;2023-03-01T08:00:05;1.70;99.90
56044;DHT22;41912;51.022;3.664;2023-03-01T08:02:32;1.80;99.90
56044;DHT22;41912;51.022;3.664;2023-03-01T08:04:57;1.90;99.90
56044;DHT22;41912;51.022;3.664;2023-03-01T08:07:23;1.90;99.90
56044;DHT22;41912;51.022;3.664;2023-03-01T08:09:48;2.00;99.90
56044;DHT22;41912;51.022;3.664;2023-03-01T08:12:14;2.10;99.90
56044;DHT22;41912;51.022;3.664;2023-03-01T08:14:42;2.20;99.90
56044;DHT22;41912;51.022;3.664;2023-03-01T08:17:07;2.20;99.90
56044;DHT22;41912;51.022;3.664;2023-03-01T08:19:33;2.30;99.90
56044;DHT22;41912;51.022;3.664;2023-03-01T08:22:01;2.40;99.90
56044;DHT22;41912;51.022;3.664;2023-03-01T08:24:27;2.40;99.90
56044;DHT22;41912;51.022;3.664;2023-03-01T08:26:53;2.50;99.90
56044;DHT22;41912;51.022;3.664;2023-03-01T08:29:19;2.60;99.90
56044;DHT22;41912;51.022;3.664;2023-03-01T08:31:45;2.70;99.90
56044;DHT22;41912;51.022;3.664;2023-03-01T08:34:13;2.70;99.90
56044;DHT22;41912;51.022;3.664;2023-03-01T08:36:41;2.80;99.90
56044;DHT22;41912;51.022;3.664;2023-03-01T08:39:09;2.90;99.90
56044;DHT22;41912;51.022;3.664;2023-03-01T08:41:35;2.90;99.90
56044;DHT22;41912;51.022;3.664;2023-03-01T08:44:01;3.00;99.90
56044;DHT22;41912;51.022;3.664;2023-03-01T08:46:29;3.00;99.90
56044;DHT22;41912;51.022;3.664;2023-03-01T08:48:55;3.10;99.90
56044;DHT22;41912;51.022;3.664;2023-03-01T08:51:21;3.10;99.90
56044;DHT22;41912;51.022;3.664;2023-03-01T08:53:48;3.20;99.90
56044;DHT22;41912;51.022;3.664;2023-03-01T08:56:14;3.30;99.90
56044;DHT22;41912;51.022;3.664;2023-03-01T08:58:47;3.30;99.90
56044;DHT22;41912;51.022;3.664;2023-03-01T09:01:15;3.40;99.90
56044;DHT22;41912;51.022;3.664;2023-03-01T09:03:41;3.50;99.90
56044;DHT22;41912;51.022;3.664;2023-03-01T09:06:08;3.50;99.90
56044;DHT22;41912;51.022;3.664;2023-03-01T09:08:37;3.60;99.90
56044;DHT22;41912;51.022;3.664;2023-03-01T09:11:05;3.70;99.90
56044;DHT22;41912;51.022;3.664;2023-03-01T09:13:31;3.70;99.90
56044;DHT22;41912;51.022;3.664;2023-03-01T09:15:58;3.80;99.90
56044;DHT22;41912;51.022;3.664;2023-03-01T09:18:23;3.80;99.90
56044;DHT22;41912;51.022;3.664;2023-03-01T09:20:49;3.90;99.90
56044;DHT22;41912;51.022;3.664;2023-03-01T09:23:15;4.00;99.90
56044;DHT22;41912;51.022;3.664;2023-03-01T09:25:40;4.00;99.90
56044;DHT22;41912;51.022;3.664;2023-03-01T09:28:06;4.10;99.90
56044;DHT22;41912;51.022;3.664;2023-03-01T09:30:31;4.20;99.90
56044;DHT22;41912;51.022;3.664;2023-03-01T09:32:57;4.20;99.90
56044;DHT22;41912;51.022;3.664;2023-03-01T09:35:23;4.30;99.90
56044;DHT22;41912;51.022;3.664;2023-03-01T09:37:49;4.30;99.90
56044;DHT22;41912;51.022;3.664;2023-03-01T09:40:26;4.40;99.90
56044;DHT22;41912;51.022;3.664;2023-03-01T09:42:54;4.50;99.90
56044;DHT22;41912;51.022;3.664;2023-03-01T09:45:27;4.50;99.90
56044;DHT22;41912;51.022;3.664;2023-03-01T09:47:54;4.60;99.90
56044;DHT22;41912;51.022;3.664;2023-03-01T09:50:22;4.70;99.90
56044;DHT22;41912;51.022;3.664;2023-03-01T09:55:31;4.80;99.90
56044;DHT22;41912;51.022;3.664;2023-03-01T10:00:46;5.00;99.90
56044;DHT22;41912;51.022;3.664;2023-03-01T10:03:16;5.00;99.90
56044;DHT22;41912;51.022;3.664;2023-03-01T10:08:34;5.20;99.90
56044;DHT22;41912;51.022;3.664;2023-03-01T10:11:04;5.30;99.90
56044;DHT22;41912;51.022;3.664;2023-03-01T10:17:08;5.40;99.90
56044;DHT22;41912;51.022;3.664;2023-03-01T10:19:36;5.50;99.90
56044;DHT22;41912;51.022;3.664;2023-03-01T10:22:15;5.60;99.50
56044;DHT22;41912;51.022;3.664;2023-03-01T10:24:41;5.60;98.90
56044;DHT22;41912;51.022;3.664;2023-03-01T10:27:22;5.70;98.70
56044;DHT22;41912;51.022;3.664;2023-03-01T10:32:18;5.90;99.20
56044;DHT22;41912;51.022;3.664;2023-03-01T10:34:44;5.90;98.50
56044;DHT22;41912;51.022;3.664;2023-03-01T10:37:18;6.00;98.20
56044;DHT22;41912;51.022;3.664;2023-03-01T10:42:38;6.10;97.50
56044;DHT22;41912;51.022;3.664;2023-03-01T10:50:46;6.40;96.70
56044;DHT22;41912;51.022;3.664;2023-03-01T10:53:35;6.40;96.60
56044;DHT22;41912;51.022;3.664;2023-03-01T10:56:11;6.50;96.50
56044;DHT22;41912;51.022;3.664;2023-03-01T10:58:40;6.60;95.80
56044;DHT22;41912;51.022;3.664;2023-03-01T11:03:42;6.70;95.50
56044;DHT22;41912;51.022;3.664;2023-03-01T11:08:37;6.90;94.20
56044;DHT22;41912;51.022;3.664;2023-03-01T11:13:35;7.00;93.70
56044;DHT22;41912;51.022;3.664;2023-03-01T11:16:06;7.10;93.30
56044;DHT22;41912;51.022;3.664;2023-03-01T11:18:33;7.10;93.00
56044;DHT22;41912;51.022;3.664;2023-03-01T11:20:59;7.10;93.40
56044;DHT22;41912;51.022;3.664;2023-03-01T11:23:28;7.20;93.50
56044;DHT22;41912;51.022;3.664;2023-03-01T11:25:58;7.30;92.30
56044;DHT22;41912;51.022;3.664;2023-03-01T11:28:28;7.30;92.00
56044;DHT22;41912;51.022;3.664;2023-03-01T11:31:13;7.40;92.10
56044;DHT22;41912;51.022;3.664;2023-03-01T11:36:24;7.50;90.80
56044;DHT22;41912;51.022;3.664;2023-03-01T11:38:53;7.60;91.20
56044;DHT22;41912;51.022;3.664;2023-03-01T11:41:29;7.70;90.60
56044;DHT22;41912;51.022;3.664;2023-03-01T11:43:59;7.70;91.30
56044;DHT22;41912;51.022;3.664;2023-03-01T11:52:27;8.00;90.80
56044;DHT22;41912;51.022;3.664;2023-03-01T12:05:45;8.20;89.20
56044;DHT22;41912;51.022;3.664;2023-03-01T12:08:23;8.30;87.70
56044;DHT22;41912;51.022;3.664;2023-03-01T12:10:59;8.40;88.10
56044;DHT22;41912;51.022;3.664;2023-03-01T12:16:15;8.40;86.70
56044;DHT22;41912;51.022;3.664;2023-03-01T12:22:01;8.50;85.70
56044;DHT22;41912;51.022;3.664;2023-03-01T12:24:35;8.50;85.90
56044;DHT22;41912;51.022;3.664;2023-03-01T12:27:13;8.50;86.00
56044;DHT22;41912;51.022;3.664;2023-03-01T12:32:32;8.70;85.00
56044;DHT22;41912;51.022;3.664;2023-03-01T12:35:29;8.60;85.40
56044;DHT22;41912;51.022;3.664;2023-03-01T12:49:05;8.80;83.80
56044;DHT22;41912;51.022;3.664;2023-03-01T12:51:35;8.90;84.00
56044;DHT22;41912;51.022;3.664;2023-03-01T12:54:07;9.00;84.00
56044;DHT22;41912;51.022;3.664;2023-03-01T12:56:37;9.10;82.80
56044;DHT22;41912;51.022;3.664;2023-03-01T13:17:51;9.40;78.20
56044;DHT22;41912;51.022;3.664;2023-03-01T13:20:20;9.50;78.00
56044;DHT22;41912;51.022;3.664;2023-03-01T13:22:47;9.50;77.50
56044;DHT22;41912;51.022;3.664;2023-03-01T13:25:14;9.50;78.00
56044;DHT22;41912;51.022;3.664;2023-03-01T13:27:41;9.60;78.40
56044;DHT22;41912;51.022;3.664;2023-03-01T13:35:59;9.70;76.40
56044;DHT22;41912;51.022;3.664;2023-03-01T13:41:49;9.90;76.90
56044;DHT22;41912;51.022;3.664;2023-03-01T13:44:26;9.90;76.70
56044;DHT22;41912;51.022;3.664;2023-03-01T13:46:54;9.90;76.60
56044;DHT22;41912;51.022;3.664;2023-03-01T13:49:27;9.90;75.70
56044;DHT22;41912;51.022;3.664;2023-03-01T13:51:54;10.00;76.60
56044;DHT22;41912;51.022;3.664;2023-03-01T13:54:31;10.00;75.70
56044;DHT22;41912;51.022;3.664;2023-03-01T13:56:59;10.10;76.40
56044;DHT22;41912;51.022;3.664;2023-03-01T13:59:26;10.10;74.90
56044;DHT22;41912;51.022;3.664;2023-03-01T14:01:57;10.10;74.90
56044;DHT22;41912;51.022;3.664;2023-03-01T14:04:33;10.20;74.90
56044;DHT22;41912;51.022;3.664;2023-03-01T14:07:21;10.20;74.80
56044;DHT22;41912;51.022;3.664;2023-03-01T14:09:54;10.30;75.10
56044;DHT22;41912;51.022;3.664;2023-03-01T14:12:29;10.40;74.80
56044;DHT22;41912;51.022;3.664;2023-03-01T14:17:55;10.50;74.40
56044;DHT22;41912;51.022;3.664;2023-03-01T14:20:26;10.60;74.80
56044;DHT22;41912;51.022;3.664;2023-03-01T14:22:55;10.70;73.40
56044;DHT22;41912;51.022;3.664;2023-03-01T14:25:31;10.80;73.90
56044;DHT22;41912;51.022;3.664;2023-03-01T14:28:23;10.80;72.70
56044;DHT22;41912;51.022;3.664;2023-03-01T14:30:55;10.80;71.80
56044;DHT22;41912;51.022;3.664;2023-03-01T14:33:26;10.90;72.00
56044;DHT22;41912;51.022;3.664;2023-03-01T14:36:08;10.90;71.90
56044;DHT22;41912;51.022;3.664;2023-03-01T14:38:42;10.90;72.10
56044;DHT22;41912;51.022;3.664;2023-03-01T14:41:15;10.90;72.00
56044;DHT22;41912;51.022;3.664;2023-03-01T14:43:45;11.00;73.00
56044;DHT22;41912;51.022;3.664;2023-03-01T14:46:25;10.90;71.50
56044;DHT22;41912;51.022;3.664;2023-03-01T14:48:54;10.90;71.40
56044;DHT22;41912;51.022;3.664;2023-03-01T14:51:22;10.90;70.90
56044;DHT22;41912;51.022;3.664;2023-03-01T14:53:48;10.90;70.90
56044;DHT22;41912;51.022;3.664;2023-03-01T14:56:16;10.80;70.90
56044;DHT22;41912;51.022;3.664;2023-03-01T14:58:44;10.70;70.00
56044;DHT22;41912;51.022;3.664;2023-03-01T15:01:16;10.70;71.20
56044;DHT22;41912;51.022;3.664;2023-03-01T15:03:44;10.60;70.40
56044;DHT22;41912;51.022;3.664;2023-03-01T15:06:15;10.60;71.20
56044;DHT22;41912;51.022;3.664;2023-03-01T15:08:44;10.50;70.40
56044;DHT22;41912;51.022;3.664;2023-03-01T15:13:40;10.50;71.60
56044;DHT22;41912;51.022;3.664;2023-03-01T15:16:09;10.50;72.90
56044;DHT22;41912;51.022;3.664;2023-03-01T15:18:36;10.60;72.40
56044;DHT22;41912;51.022;3.664;2023-03-01T15:21:14;10.60;71.80
56044;DHT22;41912;51.022;3.664;2023-03-01T15:23:40;10.60;71.40
56044;DHT22;41912;51.022;3.664;2023-03-01T15:26:06;10.50;71.10
56044;DHT22;41912;51.022;3.664;2023-03-01T15:28:39;10.50;71.50
56044;DHT22;41912;51.022;3.664;2023-03-01T15:33:42;10.60;71.50
56044;DHT22;41912;51.022;3.664;2023-03-01T15:36:52;10.50;71.70
56044;DHT22;41912;51.022;3.664;2023-03-01T15:42:13;10.50;70.90
56044;DHT22;41912;51.022;3.664;2023-03-01T15:44:49;10.40;71.60
56044;DHT22;41912;51.022;3.664;2023-03-01T15:47:24;10.40;71.10
56044;DHT22;41912;51.022;3.664;2023-03-01T15:49:53;10.50;70.80
56044;DHT22;41912;51.022;3.664;2023-03-01T15:52:33;10.40;71.20
56044;DHT22;41912;51.022;3.664;2023-03-01T15:55:14;10.50;71.00
56044;DHT22;41912;51.022;3.664;2023-03-01T15:57:40;10.40;71.10
56044;DHT22;41912;51.022;3.664;2023-03-01T16:00:09;10.40;70.90
56044;DHT22;41912;51.022;3.664;2023-03-01T16:02:37;10.30;70.70
56044;DHT22;41912;51.022;3.664;2023-03-01T16:05:03;10.30;71.00
56044;DHT22;41912;51.022;3.664;2023-03-01T16:07:29;10.30;70.70
56044;DHT22;41912;51.022;3.664;2023-03-01T16:09:56;10.20;70.50
56044;DHT22;41912;51.022;3.664;2023-03-01T16:12:23;10.20;71.30
56044;DHT22;41912;51.022;3.664;2023-03-01T16:14:50;10.20;71.40
56044;DHT22;41912;51.022;3.664;2023-03-01T16:17:15;10.10;70.80
56044;DHT22;41912;51.022;3.664;2023-03-01T16:19:41;10.10;70.90
56044;DHT22;41912;51.022;3.664;2023-03-01T16:22:09;10.10;71.70
56044;DHT22;41912;51.022;3.664;2023-03-01T16:24:35;10.10;72.60
56044;DHT22;41912;51.022;3.664;2023-03-01T16:27:01;10.00;71.30
56044;DHT22;41912;51.022;3.664;2023-03-01T16:29:27;9.90;71.50
56044;DHT22;41912;51.022;3.664;2023-03-01T16:31:54;9.90;72.30
56044;DHT22;41912;51.022;3.664;2023-03-01T16:34:20;9.90;72.60
56044;DHT22;41912;51.022;3.664;2023-03-01T16:36:47;9.90;71.90
56044;DHT22;41912;51.022;3.664;2023-03-01T16:39:13;10.00;71.10
56044;DHT22;41912;51.022;3.664;2023-03-01T16:41:38;10.00;70.80
56044;DHT22;41912;51.022;3.664;2023-03-01T16:44:04;10.10;70.90
56044;DHT22;41912;51.022;3.664;2023-03-01T16:46:30;10.10;70.90
56044;DHT22;41912;51.022;3.664;2023-03-01T16:48:56;10.00;71.40
56044;DHT22;41912;51.022;3.664;2023-03-01T16:51:23;10.00;71.40
56044;DHT22;41912;51.022;3.664;2023-03-01T16:53:49;9.90;71.80
56044;DHT22;41912;51.022;3.664;2023-03-01T16:56:16;9.80;72.10
56044;DHT22;41912;51.022;3.664;2023-03-01T16:58:42;9.80;72.20
56044;DHT22;41912;51.022;3.664;2023-03-01T17:01:16;9.70;72.40
56044;DHT22;41912;51.022;3.664;2023-03-01T17:03:43;9.60;71.80
56044;DHT22;41912;51.022;3.664;2023-03-01T17:06:13;9.50;72.10
56044;DHT22;41912;51.022;3.664;2023-03-01T17:08:40;9.30;71.90
56044;DHT22;41912;51.022;3.664;2023-03-01T17:11:07;9.30;72.60
56044;DHT22;41912;51.022;3.664;2023-03-01T17:13:33;9.20;73.00
56044;DHT22;41912;51.022;3.664;2023-03-01T17:16:02;9.10;73.20
56044;DHT22;41912;51.022;3.664;2023-03-01T17:18:27;9.10;73.70
56044;DHT22;41912;51.022;3.664;2023-03-01T17:20:53;9.10;73.60
56044;DHT22;41912;51.022;3.664;2023-03-01T17:23:19;9.00;73.80
56044;DHT22;41912;51.022;3.664;2023-03-01T17:25:44;9.00;74.10
56044;DHT22;41912;51.022;3.664;2023-03-01T17:28:12;8.90;74.00
56044;DHT22;41912;51.022;3.664;2023-03-01T17:30:41;8.90;74.80
56044;DHT22;41912;51.022;3.664;2023-03-01T17:33:06;8.80;74.40
56044;DHT22;41912;51.022;3.664;2023-03-01T17:35:32;8.80;74.50
56044;DHT22;41912;51.022;3.664;2023-03-01T17:38:03;8.70;74.20
56044;DHT22;41912;51.022;3.664;2023-03-01T17:40:28;8.70;74.50
56044;DHT22;41912;51.022;3.664;2023-03-01T17:42:54;8.60;74.40
56044;DHT22;41912;51.022;3.664;2023-03-01T17:45:20;8.60;75.40
56044;DHT22;41912;51.022;3.664;2023-03-01T17:47:45;8.60;74.30